Time;durP1;ratioP1;P1;durP2;ratioP2;P2;SDS_P1;SDS_P2;PMS_P1;PMS_P2;Temp;Humidity;BMP_temperature;BMP_pressure;BME280_temperature;BME280_humidity;BME280_pressure;Samples;Min_cycle;Max_cycle;Signal;HPM_P1;HPM_P2
2023/01/26 00:00:48;;;;;;;103.00;29.83;;;0.00;99.60;;;;;;4703119;30;20064;-80
2023/01/26 00:03:14;;;;;;;143.27;28.37;;;0.00;99.70;;;;;;4703900;30;20534;-89
2023/01/26 00:05:40;;;;;;;92.97;27.83;;;0.00;99.60;;;;;;4701900;30;20058;-83
2023/01/26 00:08:07;;;;;;;251.27;29.27;;;0.00;99.50;;;;;;4717198;30;20060;-85
2023/01/26 00:10:36;;;;;;;75.53;25.10;;;0.00;99.60;;;;;;4686723;30;20141;-87
2023/01/26 00:13:02;;;;;;;;;;;0.00;99.50;;;;;;4717242;30;20136;-85
2023/01/26 00:15:27;;;;;;;97.73;24.63;;;0.00;99.50;;;;;;4719774;30;20017;-90
2023/01/26 00:17:53;;;;;;;93.60;23.77;;;0.00;99.50;;;;;;4706554;30;20049;-89
2023/01/26 00:20:19;;;;;;;74.63;24.10;;;0.00;99.50;;;;;;4706677;30;20493;-86
2023/01/26 00:22:44;;;;;;;82.90;25.50;;;0.00;99.50;;;;;;4701610;30;20045;-88
2023/01/26 00:25:10;;;;;;;76.77;23.03;;;0.00;99.50;;;;;;4721898;30;20053;-91
2023/01/26 00:27:35;;;;;;;78.43;24.30;;;0.00;99.50;;;;;;4706479;30;20057;-90
2023/01/26 00:30:02;;;;;;;79.30;24.47;;;0.00;99.50;;;;;;4706159;30;20052;-83
2023/01/26 00:32:27;;;;;;;67.23;22.90;;;0.10;99.80;;;;;;4707996;30;20060;-87
2023/01/26 00:34:53;;;;;;;72.90;24.27;;;0.10;99.50;;;;;;4691403;30;20053;-90
2023/01/26 00:37:19;;;;;;;69.37;23.53;;;0.10;99.50;;;;;;4720568;30;20847;-83
2023/01/26 00:39:44;;;;;;;77.30;24.17;;;0.10;99.50;;;;;;4706002;30;20052;-89
2023/01/26 00:42:12;;;;;;;157.33;26.77;;;0.10;99.50;;;;;;4704477;30;20115;-90
2023/01/26 00:44:40;;;;;;;75.30;23.83;;;0.10;99.50;;;;;;4705797;30;20053;-88
2023/01/26 00:47:08;;;;;;;80.73;24.63;;;0.10;99.50;;;;;;4704946;30;20052;-87
2023/01/26 00:49:34;;;;;;;75.25;23.92;;;0.10;99.50;;;;;;4706638;30;20075;-90
2023/01/26 00:52:00;;;;;;;97.43;24.03;;;0.10;99.50;;;;;;4703854;30;20057;-86
2023/01/26 00:54:26;;;;;;;148.53;26.20;;;0.10;99.50;;;;;;4705800;30;20041;-88
2023/01/26 00:56:52;;;;;;;80.67;24.03;;;0.10;99.50;;;;;;4708109;30;20045;-91
2023/01/26 00:59:18;;;;;;;85.00;23.07;;;0.10;99.50;;;;;;4705760;30;20460;-90
2023/01/26 01:01:44;;;;;;;76.67;23.10;;;0.00;99.50;;;;;;4705062;30;20045;-89
2023/01/26 01:04:09;;;;;;;77.43;24.00;;;0.10;99.60;;;;;;4706836;30;20494;-88
2023/01/26 01:06:35;;;;;;;205.20;27.47;;;0.10;99.60;;;;;;4709238;30;20078;-87
2023/01/26 01:09:00;;;;;;;73.57;22.43;;;0.10;99.60;;;;;;4704122;30;20061;-90
2023/01/26 01:11:26;;;;;;;64.37;21.87;;;0.10;99.60;;;;;;4706713;30;20449;-87
2023/01/26 01:13:52;;;;;;;69.03;21.33;;;0.10;99.60;;;;;;4705397;30;20049;-89
2023/01/26 01:16:17;;;;;;;87.93;20.30;;;0.10;99.60;;;;;;4708722;30;20057;-88
2023/01/26 01:18:43;;;;;;;71.13;21.53;;;0.10;99.60;;;;;;4704532;30;20037;-88
2023/01/26 01:21:13;;;;;;;63.63;20.53;;;0.10;99.60;;;;;;4708291;30;20060;-89
2023/01/26 01:23:39;;;;;;;65.57;20.70;;;0.10;99.60;;;;;;4705221;30;20073;-84
2023/01/26 01:26:05;;;;;;;75.43;19.83;;;0.10;99.60;;;;;;4706824;30;20138;-89
2023/01/26 01:28:32;;;;;;;66.10;19.83;;;0.10;99.60;;;;;;4707393;30;20085;-87
2023/01/26 01:30:58;;;;;;;72.87;21.37;;;0.10;99.60;;;;;;4689235;30;20053;-78
2023/01/26 01:33:24;;;;;;;65.47;20.63;;;0.10;99.60;;;;;;4703981;30;20064;-78
2023/01/26 01:36:01;;;;;;;70.70;23.60;;;0.10;99.90;;;;;;4702404;30;20045;-85
2023/01/26 01:38:27;;;;;;;69.10;20.60;;;0.10;99.60;;;;;;4702076;30;20050;-80
2023/01/26 01:40:54;;;;;;;69.50;21.17;;;0.10;99.60;;;;;;4706131;30;20563;-89
2023/01/26 01:43:21;;;;;;;177.20;22.70;;;0.10;99.60;;;;;;4702863;30;20395;-89
2023/01/26 01:45:48;;;;;;;61.97;19.77;;;0.10;99.60;;;;;;4700779;30;20594;-79
2023/01/26 01:48:19;;;;;;;140.63;22.03;;;0.10;99.60;;;;;;4717418;30;20075;-88
2023/01/26 01:50:48;;;;;;;66.70;20.60;;;0.10;99.60;;;;;;4700551;30;20069;-87
2023/01/26 01:53:23;;;;;;;67.50;20.60;;;0.10;99.60;;;;;;4703161;30;20094;-79
2023/01/26 01:55:51;;;;;;;69.07;20.47;;;0.10;99.60;;;;;;4714884;30;20106;-88
2023/01/26 01:58:18;;;;;;;71.55;21.75;;;0.10;99.70;;;;;;4704065;30;20175;-79
2023/01/26 02:00:44;;;;;;;191.97;30.03;;;0.20;99.70;;;;;;4702671;30;20131;-79
2023/01/26 02:03:10;;;;;;;80.73;24.90;;;0.20;99.70;;;;;;4704854;30;20080;-84
2023/01/26 02:05:54;;;;;;;63.53;20.17;;;0.20;99.70;;;;;;4703179;30;20598;-79
2023/01/26 02:08:25;;;;;;;74.70;20.90;;;0.20;99.70;;;;;;4705075;30;20060;-77
2023/01/26 02:10:54;;;;;;;70.57;22.00;;;0.20;99.70;;;;;;4705791;30;20205;-90
2023/01/26 02:13:22;;;;;;;79.80;21.83;;;0.20;99.70;;;;;;4706876;30;20056;-90
2023/01/26 02:15:49;;;;;;;117.80;26.07;;;0.20;99.70;;;;;;4705848;30;20376;-82
2023/01/26 02:18:16;;;;;;;229.57;28.47;;;0.20;99.70;;;;;;4704209;30;20465;-82
2023/01/26 02:20:49;;;;;;;78.77;21.20;;;0.20;99.80;;;;;;4705777;30;20078;-89
2023/01/26 02:23:39;;;;;;;74.83;20.80;;;0.20;99.70;;;;;;4690029;30;20053;-81
2023/01/26 02:26:14;;;;;;;75.23;22.33;;;0.30;99.80;;;;;;4704162;30;20061;-83
2023/01/26 02:28:41;;;;;;;64.53;19.37;;;0.20;99.80;;;;;;4703062;30;20431;-89
2023/01/26 02:31:08;;;;;;;89.40;26.00;;;0.30;99.80;;;;;;4714336;30;20074;-90
2023/01/26 02:33:34;;;;;;;260.77;25.33;;;0.30;99.80;;;;;;4705719;30;20111;-84
2023/01/26 02:36:01;;;;;;;63.70;19.60;;;0.30;99.80;;;;;;4706336;30;20052;-78
2023/01/26 02:38:35;;;;;;;51.73;18.70;;;0.30;99.80;;;;;;4705433;30;20057;-82
2023/01/26 02:42:37;;;;;;;193.80;28.83;;;0.30;99.80;;;;;;4716670;30;20091;-81
2023/01/26 02:44:05;;;;;;;77.13;25.43;;;0.30;99.80;;;;;;4700531;30;20061;-77
2023/01/26 02:46:30;;;;;;;64.68;22.67;;;0.30;99.80;;;;;;4703906;30;20132;-79
2023/01/26 02:51:40;;;;;;;105.37;21.97;;;0.30;99.80;;;;;;4700668;30;20088;-81
2023/01/26 02:54:06;;;;;;;76.57;19.30;;;0.40;99.80;;;;;;4703503;30;20136;-77
2023/01/26 02:56:31;;;;;;;73.07;22.47;;;0.30;99.80;;;;;;4701492;30;20068;-80
2023/01/26 02:58:57;;;;;;;73.77;19.53;;;0.40;99.80;;;;;;4703968;30;20132;-81
2023/01/26 03:01:22;;;;;;;64.97;19.73;;;0.30;99.80;;;;;;4704441;30;20076;-79
2023/01/26 03:03:48;;;;;;;318.03;32.00;;;0.30;99.80;;;;;;4696306;30;20130;-81
2023/01/26 03:06:14;;;;;;;91.23;31.23;;;0.40;99.80;;;;;;4705039;30;20045;-80
2023/01/26 03:08:40;;;;;;;55.40;19.10;;;0.40;99.90;;;;;;4706404;30;20225;-81
2023/01/26 03:11:07;;;;;;;67.70;19.73;;;0.40;99.80;;;;;;4702688;30;20682;-82
2023/01/26 03:13:33;;;;;;;59.27;18.43;;;0.40;99.90;;;;;;4719889;30;20053;-85
2023/01/26 03:16:05;;;;;;;71.33;21.23;;;0.40;99.80;;;;;;4705134;30;20521;-80
2023/01/26 03:29:31;;;;;;;79.83;23.93;;;0.40;99.90;;;;;;4701629;30;20523;-79
2023/01/26 03:32:00;;;;;;;88.30;20.07;;;0.40;99.90;;;;;;4717868;30;20080;-81
2023/01/26 03:34:26;;;;;;;;;;;0.50;99.90;;;;;;4704147;30;20045;-80
2023/01/26 03:36:52;;;;;;;66.60;21.27;;;0.50;99.90;;;;;;4717385;30;20539;-81
2023/01/26 03:58:29;;;;;;;69.30;18.27;;;0.50;99.90;;;;;;4705045;30;20061;-86
2023/01/26 04:00:58;;;;;;;73.23;20.17;;;0.50;99.90;;;;;;4691942;30;20844;-85
2023/01/26 04:08:51;;;;;;;53.13;15.93;;;0.50;99.90;;;;;;4710049;30;20502;-79
2023/01/26 04:11:17;;;;;;;65.20;19.20;;;0.60;99.90;;;;;;4707287;30;20045;-81
2023/01/26 04:21:57;;;;;;;55.13;17.23;;;0.60;99.90;;;;;;4706768;30;20062;-79
2023/01/26 04:24:23;;;;;;;59.50;16.47;;;0.60;99.90;;;;;;4704251;30;20057;-77
2023/01/26 04:26:48;;;;;;;60.97;17.17;;;0.60;99.90;;;;;;4706128;30;20090;-80
2023/01/26 04:29:15;;;;;;;56.23;17.13;;;0.60;99.90;;;;;;4706306;30;20049;-78
2023/01/26 04:31:41;;;;;;;44.77;15.57;;;0.60;99.90;;;;;;4707703;30;20534;-84
2023/01/26 04:34:12;;;;;;;56.50;16.87;;;0.60;99.90;;;;;;4707042;30;20069;-79
2023/01/26 04:36:38;;;;;;;111.70;18.87;;;0.60;99.90;;;;;;4705955;30;20083;-80
2023/01/26 04:39:04;;;;;;;59.03;18.17;;;0.60;99.90;;;;;;4708857;30;20124;-80
2023/01/26 04:41:31;;;;;;;70.27;18.63;;;0.60;99.90;;;;;;4707124;30;20824;-81
2023/01/26 04:43:57;;;;;;;62.00;18.87;;;0.70;99.90;;;;;;4704777;30;20044;-82
2023/01/26 04:46:23;;;;;;;65.10;19.60;;;0.70;99.90;;;;;;4704640;30;20059;-80
2023/01/26 04:48:49;;;;;;;54.93;16.90;;;0.70;99.90;;;;;;4712838;30;20114;-81
2023/01/26 04:51:19;;;;;;;69.67;17.13;;;0.70;99.90;;;;;;4723941;30;20143;-82
2023/01/26 04:53:46;;;;;;;73.00;22.67;;;0.70;99.90;;;;;;4726239;30;20160;-79
2023/01/26 04:56:27;;;;;;;55.77;17.70;;;0.70;99.90;;;;;;4724463;30;20037;-78
2023/01/26 04:58:54;;;;;;;71.67;21.77;;;0.70;99.90;;;;;;4708362;30;20162;-85
2023/01/26 05:01:20;;;;;;;62.53;19.10;;;0.70;99.90;;;;;;4709147;30;20068;-76
2023/01/26 05:03:46;;;;;;;65.23;18.43;;;0.70;99.90;;;;;;4722535;30;20056;-76
2023/01/26 05:06:12;;;;;;;98.87;22.87;;;0.70;99.90;;;;;;4726058;30;20073;-78
2023/01/26 05:08:37;;;;;;;61.77;18.20;;;0.80;99.90;;;;;;4723566;30;20060;-78
2023/01/26 05:11:03;;;;;;;58.30;18.27;;;0.80;99.90;;;;;;4694585;30;20044;-78
2023/01/26 05:13:29;;;;;;;63.30;19.00;;;0.70;99.90;;;;;;4724762;30;20037;-78
2023/01/26 05:15:55;;;;;;;54.93;17.40;;;0.80;99.90;;;;;;4724264;30;20064;-83
2023/01/26 05:18:20;;;;;;;60.13;20.07;;;0.80;99.90;;;;;;4723479;30;20040;-80
2023/01/26 05:20:46;;;;;;;71.60;23.33;;;0.80;99.90;;;;;;4706035;30;20060;-80
2023/01/26 05:23:12;;;;;;;63.00;20.37;;;0.80;99.90;;;;;;4708281;30;20057;-77
2023/01/26 05:25:37;;;;;;;72.33;20.13;;;0.80;99.90;;;;;;4723712;30;20040;-78
2023/01/26 05:28:03;;;;;;;59.90;17.67;;;0.80;99.90;;;;;;4705720;30;20654;-82
2023/01/26 05:30:29;;;;;;;66.93;19.20;;;0.80;99.90;;;;;;4710998;30;20044;-78
2023/01/26 05:33:03;;;;;;;115.53;21.73;;;0.80;99.90;;;;;;4723130;30;20403;-77
2023/01/26 05:35:28;;;;;;;83.97;24.30;;;0.80;99.90;;;;;;4727053;30;20102;-77
2023/01/26 05:37:55;;;;;;;89.60;21.13;;;0.80;99.90;;;;;;4709083;30;20053;-81
2023/01/26 05:40:21;;;;;;;101.33;23.40;;;0.80;99.90;;;;;;4708119;30;20064;-82
2023/01/26 05:42:47;;;;;;;117.03;21.33;;;0.80;99.90;;;;;;4708132;30;20145;-79
2023/01/26 05:45:13;;;;;;;91.03;22.23;;;0.90;99.90;;;;;;4723034;30;20064;-79
2023/01/26 05:47:38;;;;;;;93.57;21.60;;;0.90;99.90;;;;;;4720396;30;20099;-82
2023/01/26 05:50:05;;;;;;;105.20;24.03;;;0.80;99.90;;;;;;4719060;30;20155;-78
2023/01/26 05:52:31;;;;;;;388.93;33.33;;;0.90;99.90;;;;;;4704782;30;20790;-78
2023/01/26 05:54:56;;;;;;;83.70;23.63;;;0.90;99.90;;;;;;4721403;30;20057;-79
2023/01/26 05:57:22;;;;;;;218.70;24.97;;;0.90;99.90;;;;;;4701826;30;20052;-79
2023/01/26 05:59:48;;;;;;;95.07;23.43;;;0.90;99.90;;;;;;4718955;30;20173;-78
2023/01/26 06:02:13;;;;;;;88.23;20.83;;;0.90;99.90;;;;;;4721212;30;20044;-86
2023/01/26 06:04:39;;;;;;;101.93;22.17;;;0.90;99.90;;;;;;4703752;30;20045;-84
2023/01/26 06:07:05;;;;;;;108.70;22.47;;;0.90;99.90;;;;;;4706513;30;20126;-78
2023/01/26 06:09:30;;;;;;;111.03;24.37;;;0.90;99.90;;;;;;4704496;30;20045;-78
2023/01/26 06:11:56;;;;;;;100.73;23.93;;;0.90;99.90;;;;;;4705497;30;20051;-80
2023/01/26 06:14:22;;;;;;;129.30;24.27;;;0.90;99.90;;;;;;4718274;30;20099;-79
2023/01/26 06:16:47;;;;;;;107.00;25.00;;;0.90;99.90;;;;;;4718356;30;20057;-79
2023/01/26 06:19:13;;;;;;;167.13;30.47;;;0.90;99.90;;;;;;4720155;30;20058;-76
2023/01/26 06:21:39;;;;;;;132.87;26.27;;;1.00;99.90;;;;;;4719021;30;20049;-81
2023/01/26 06:24:05;;;;;;;133.07;27.97;;;1.00;99.90;;;;;;4687937;30;20059;-77
2023/01/26 06:26:30;;;;;;;131.50;29.93;;;1.00;99.90;;;;;;4710679;30;20049;-75
2023/01/26 06:28:56;;;;;;;118.23;28.80;;;0.90;99.90;;;;;;4708888;30;20063;-76
2023/01/26 06:31:23;;;;;;;126.37;30.13;;;0.90;99.90;;;;;;4712524;30;20153;-82
2023/01/26 06:33:48;;;;;;;162.10;30.77;;;1.00;99.90;;;;;;4719454;30;20036;-78
2023/01/26 06:36:14;;;;;;;137.90;24.60;;;1.00;99.90;;;;;;4705485;30;20044;-82
2023/01/26 06:38:51;;;;;;;138.97;29.63;;;1.00;99.90;;;;;;4704324;30;20072;-85
2023/01/26 06:41:17;;;;;;;120.20;24.70;;;1.00;99.90;;;;;;4721031;30;20049;-78
2023/01/26 06:43:47;;;;;;;220.77;30.97;;;1.00;99.90;;;;;;4719098;30;20043;-81
2023/01/26 06:46:14;;;;;;;143.50;31.47;;;1.00;99.90;;;;;;4704743;30;20045;-79
2023/01/26 06:48:40;;;;;;;152.07;26.53;;;1.00;99.90;;;;;;4713241;30;20179;-78
2023/01/26 06:51:14;;;;;;;140.13;29.00;;;1.00;99.90;;;;;;4718469;30;20056;-76
2023/01/26 06:53:42;;;;;;;129.67;27.83;;;1.00;99.90;;;;;;4719644;30;20090;-81
2023/01/26 06:56:08;;;;;;;149.70;29.02;;;1.00;99.90;;;;;;4720599;30;20414;-79
2023/01/26 06:58:33;;;;;;;143.97;29.20;;;1.00;99.90;;;;;;4720827;30;20052;-75
2023/01/26 07:00:59;;;;;;;140.53;32.53;;;1.00;99.90;;;;;;4704655;30;20049;-80
2023/01/26 07:03:25;;;;;;;123.67;24.23;;;1.00;99.90;;;;;;4721359;30;20657;-78
2023/01/26 07:05:51;;;;;;;171.83;31.20;;;1.00;99.90;;;;;;4721668;30;20052;-81
2023/01/26 07:08:16;;;;;;;163.90;29.67;;;1.00;99.90;;;;;;4707760;30;20689;-73
2023/01/26 07:10:42;;;;;;;149.60;25.60;;;1.10;99.90;;;;;;4692744;30;20063;-83
2023/01/26 07:13:07;;;;;;;150.87;25.17;;;1.10;99.90;;;;;;4703929;30;20040;-88
2023/01/26 07:15:33;;;;;;;141.80;25.33;;;1.20;99.90;;;;;;4719586;30;20056;-80
2023/01/26 07:17:59;;;;;;;136.57;25.47;;;1.20;99.90;;;;;;4700891;30;20664;-84
2023/01/26 07:20:25;;;;;;;123.63;24.67;;;1.20;99.90;;;;;;4693041;30;20056;-88
2023/01/26 07:22:51;;;;;;;158.90;28.03;;;1.30;99.90;;;;;;4720029;30;20049;-81
2023/01/26 07:25:18;;;;;;;238.53;31.27;;;1.40;99.90;;;;;;4723557;30;20056;-80
2023/01/26 07:27:44;;;;;;;129.37;24.37;;;1.50;99.90;;;;;;4708325;30;20057;-83
2023/01/26 07:30:13;;;;;;;617.43;47.90;;;1.60;99.90;;;;;;4724088;30;20453;-85
2023/01/26 07:32:38;;;;;;;200.27;30.53;;;1.60;99.90;;;;;;4709278;30;20136;-88
2023/01/26 07:35:05;;;;;;;135.77;25.87;;;1.70;99.90;;;;;;4708026;30;20140;-82
2023/01/26 07:37:30;;;;;;;147.87;26.67;;;1.80;99.90;;;;;;4723990;30;20048;-88
2023/01/26 07:39:56;;;;;;;149.20;26.27;;;1.80;99.90;;;;;;4709457;30;20049;-86
2023/01/26 07:42:21;;;;;;;149.47;29.10;;;1.80;99.90;;;;;;4711106;30;20060;-87
2023/01/26 07:44:47;;;;;;;122.03;23.60;;;1.80;99.90;;;;;;4724471;30;20040;-85
2023/01/26 07:47:13;;;;;;;141.90;29.30;;;1.80;99.90;;;;;;4704832;30;20041;-79
2023/01/26 07:49:39;;;;;;;149.97;25.87;;;1.80;99.90;;;;;;4726222;30;20056;-87
2023/01/26 07:52:07;;;;;;;142.90;25.70;;;1.80;99.90;;;;;;4691806;30;20239;-87
2023/01/26 07:54:33;;;;;;;200.70;45.60;;;1.80;99.90;;;;;;4726928;30;20157;-88
2023/01/26 07:56:59;;;;;;;293.83;31.73;;;1.80;99.90;;;;;;4723518;30;20139;-86
2023/01/26 07:59:25;;;;;;;240.33;32.97;;;1.80;99.90;;;;;;4724892;30;20106;-85
2023/01/26 08:01:51;;;;;;;133.67;23.43;;;1.80;99.90;;;;;;4710920;30;20065;-85
2023/01/26 08:04:17;;;;;;;138.83;25.73;;;1.80;99.90;;;;;;4707749;30;20057;-86
2023/01/26 08:06:43;;;;;;;127.93;26.10;;;1.90;99.90;;;;;;4709558;30;20384;-87
2023/01/26 08:09:09;;;;;;;106.13;19.10;;;1.90;99.90;;;;;;4708422;30;20111;-86
2023/01/26 08:11:35;;;;;;;96.03;16.23;;;2.00;99.90;;;;;;4724113;30;20039;-87
2023/01/26 08:14:00;;;;;;;108.10;18.30;;;2.00;99.90;;;;;;4706127;30;20057;-85
2023/01/26 08:16:26;;;;;;;160.07;18.17;;;2.10;99.90;;;;;;4710032;30;20140;-85
2023/01/26 08:18:54;;;;;;;404.90;26.08;;;2.10;99.90;;;;;;4706310;30;20156;-81
2023/01/26 08:21:20;;;;;;;86.60;13.17;;;2.00;99.90;;;;;;4710479;30;20589;-79
2023/01/26 08:23:50;;;;;;;102.77;14.80;;;2.10;99.90;;;;;;4707162;30;20828;-80
2023/01/26 08:26:17;;;;;;;269.53;23.07;;;2.10;99.90;;;;;;4708777;30;20099;-80
2023/01/26 08:28:43;;;;;;;83.63;13.93;;;2.20;99.90;;;;;;4709481;30;20067;-82
2023/01/26 08:31:16;;;;;;;74.50;12.10;;;2.30;99.90;;;;;;4706391;30;20049;-77
2023/01/26 08:33:42;;;;;;;82.50;11.93;;;2.40;99.90;;;;;;4718558;30;20080;-84
2023/01/26 08:36:11;;;;;;;67.83;10.80;;;2.40;99.90;;;;;;4708682;30;20040;-85
2023/01/26 08:38:37;;;;;;;78.07;10.90;;;2.50;99.90;;;;;;4726130;30;20052;-85
2023/01/26 08:41:03;;;;;;;78.37;10.67;;;2.50;99.90;;;;;;4726126;30;20059;-84
2023/01/26 08:43:29;;;;;;;64.67;10.13;;;2.50;99.90;;;;;;4710519;30;20048;-86
2023/01/26 08:45:56;;;;;;;79.83;10.30;;;2.60;99.90;;;;;;4726836;30;20048;-86
2023/01/26 08:48:22;;;;;;;87.47;10.60;;;2.70;99.90;;;;;;4725831;30;20094;-84
2023/01/26 08:50:52;;;;;;;87.53;9.90;;;2.80;99.90;;;;;;4727977;30;20061;-85
2023/01/26 08:53:17;;;;;;;81.33;9.70;;;2.90;99.90;;;;;;4726073;30;20725;-84
2023/01/26 08:55:43;;;;;;;67.43;8.80;;;3.00;99.90;;;;;;4727477;30;20052;-87
2023/01/26 08:58:08;;;;;;;74.83;8.73;;;3.10;99.90;;;;;;4709689;30;20556;-87
2023/01/26 09:00:34;;;;;;;79.63;9.87;;;3.20;99.90;;;;;;4710985;30;20470;-87
2023/01/26 09:03:04;;;;;;;67.17;8.97;;;3.20;99.90;;;;;;4728166;30;20411;-85
2023/01/26 09:05:38;;;;;;;81.50;8.77;;;3.30;99.90;;;;;;4701624;30;20060;-84
2023/01/26 09:08:05;;;;;;;66.23;8.87;;;3.40;99.90;;;;;;4710366;30;20048;-86
2023/01/26 09:10:32;;;;;;;71.07;9.10;;;3.50;99.90;;;;;;4709206;30;20055;-85
2023/01/26 09:12:58;;;;;;;67.80;8.60;;;3.60;99.90;;;;;;4720820;30;20601;-79
2023/01/26 09:15:24;;;;;;;78.73;8.00;;;3.70;99.90;;;;;;4707148;30;20122;-87
2023/01/26 09:17:50;;;;;;;71.50;8.23;;;3.70;99.90;;;;;;4689909;30;20052;-84
2023/01/26 09:20:16;;;;;;;56.93;7.13;;;3.80;99.90;;;;;;4702896;30;20053;-86
2023/01/26 09:22:42;;;;;;;63.17;7.20;;;3.90;99.90;;;;;;4706491;30;20057;-86
2023/01/26 09:25:09;;;;;;;62.73;7.07;;;3.90;99.90;;;;;;4721027;30;20075;-85
2023/01/26 09:27:34;;;;;;;56.63;7.40;;;4.00;99.90;;;;;;4701729;30;20140;-77
2023/01/26 09:30:01;;;;;;;46.07;6.87;;;4.10;99.90;;;;;;4706833;30;20056;-76
2023/01/26 09:32:27;;;;;;;57.93;6.43;;;4.20;99.90;;;;;;4694129;30;20165;-85
2023/01/26 09:34:52;;;;;;;56.00;6.57;;;4.20;99.90;;;;;;4729155;30;20075;-85
2023/01/26 09:37:18;;;;;;;67.97;7.40;;;4.30;99.90;;;;;;4725332;30;20543;-85
2023/01/26 09:39:44;;;;;;;65.23;7.07;;;4.30;99.90;;;;;;4708291;30;20579;-85
2023/01/26 09:42:55;;;;;;;58.70;6.63;;;4.40;99.90;;;;;;4711520;30;20044;-85
2023/01/26 09:45:30;;;;;;;56.58;7.03;;;4.40;99.90;;;;;;4677346;30;20140;-82
2023/01/26 09:48:13;;;;;;;51.00;5.88;;;4.50;99.90;;;;;;4693658;30;20052;-83
2023/01/26 09:50:57;;;;;;;50.77;6.40;;;4.50;99.90;;;;;;4709909;30;20060;-79
2023/01/26 09:53:43;;;;;;;54.75;5.57;;;4.60;99.90;;;;;;4724007;30;20552;-82
2023/01/26 09:56:16;;;;;;;49.70;6.37;;;4.70;99.90;;;;;;4727906;30;20059;-83
2023/01/26 09:58:45;;;;;;;45.58;5.78;;;4.70;99.90;;;;;;4720993;30;20048;-84
2023/01/26 10:01:22;;;;;;;55.40;6.22;;;4.90;99.90;;;;;;4711089;30;20167;-83
2023/01/26 10:04:22;;;;;;;44.95;5.55;;;5.10;99.90;;;;;;4726025;30;20067;-82
2023/01/26 10:06:51;;;;;;;52.78;6.30;;;5.20;99.90;;;;;;4722505;30;20064;-84
2023/01/26 10:09:24;;;;;;;36.97;4.63;;;5.40;99.90;;;;;;4725928;30;20057;-82
2023/01/26 10:11:59;;;;;;;40.50;6.07;;;5.50;99.90;;;;;;4725529;30;20069;-83
2023/01/26 10:14:43;;;;;;;50.53;5.93;;;5.60;99.90;;;;;;4708354;30;20140;-83
2023/01/26 10:17:20;;;;;;;40.53;5.38;;;5.60;99.90;;;;;;4695845;30;20135;-80
2023/01/26 10:19:56;;;;;;;46.25;5.53;;;5.60;99.90;;;;;;4723030;30;20904;-83
2023/01/26 10:22:46;;;;;;;40.67;4.75;;;5.60;99.70;;;;;;4697406;30;20052;-82
2023/01/26 10:25:39;;;;;;;36.65;5.32;;;5.60;99.70;;;;;;4723728;30;20048;-84
2023/01/26 10:28:17;;;;;;;35.08;4.97;;;5.60;99.50;;;;;;4726354;30;20057;-84
2023/01/26 10:30:44;;;;;;;40.78;6.10;;;5.70;99.50;;;;;;4707914;30;20486;-80
2023/01/26 10:33:36;;;;;;;39.42;5.03;;;5.70;99.40;;;;;;4708657;30;20062;-83
2023/01/26 10:36:03;;;;;;;38.22;5.13;;;5.80;99.30;;;;;;4708167;30;20052;-82
2023/01/26 10:38:32;;;;;;;36.88;5.03;;;5.90;99.20;;;;;;4710234;30;20068;-79
2023/01/26 10:41:08;;;;;;;40.00;4.65;;;5.90;99.00;;;;;;4694942;30;20682;-81
2023/01/26 10:43:40;;;;;;;38.72;5.57;;;6.00;98.90;;;;;;4726219;30;20156;-83
2023/01/26 10:46:25;;;;;;;35.47;4.68;;;6.10;98.90;;;;;;4718692;30;20412;-79
2023/01/26 10:48:56;;;;;;;36.25;4.75;;;6.10;98.70;;;;;;4723996;30;20837;-77
2023/01/26 10:51:30;;;;;;;39.25;4.57;;;6.20;98.60;;;;;;4688829;30;20089;-83
2023/01/26 10:54:12;;;;;;;34.70;4.50;;;6.30;98.50;;;;;;4703758;30;20123;-82
2023/01/26 10:56:44;;;;;;;41.63;5.68;;;6.30;98.30;;;;;;4724737;30;20452;-82
2023/01/26 10:59:12;;;;;;;45.78;4.85;;;6.40;98.40;;;;;;4705387;30;20079;-81
2023/01/26 11:02:11;;;;;;;41.35;5.50;;;6.50;98.50;;;;;;4717540;30;20045;-81
2023/01/26 11:04:38;;;;;;;32.45;4.07;;;6.50;98.30;;;;;;4700645;30;20068;-82
2023/01/26 11:07:24;;;;;;;41.10;4.75;;;6.70;98.50;;;;;;4708764;30;20103;-80
2023/01/26 11:09:51;;;;;;;33.67;3.97;;;6.80;98.30;;;;;;4708419;30;20056;-77
2023/01/26 11:12:34;;;;;;;29.90;4.22;;;6.90;98.00;;;;;;4721660;30;20061;-77
2023/01/26 11:15:21;;;;;;;34.72;4.20;;;6.90;97.80;;;;;;4724267;30;20056;-77
2023/01/26 11:18:52;;;;;;;33.40;4.82;;;7.00;97.90;;;;;;4693358;30;20059;-77
2023/01/26 11:21:49;;;;;;;35.00;5.22;;;7.00;97.80;;;;;;4670302;30;20152;-77
2023/01/26 11:24:25;;;;;;;31.25;4.28;;;7.00;97.70;;;;;;4667915;30;20080;-77
2023/01/26 11:27:21;;;;;;;28.38;3.75;;;7.00;97.70;;;;;;4718570;30;20526;-77
2023/01/26 11:30:25;;;;;;;33.22;4.03;;;7.10;97.50;;;;;;4720795;30;20083;-77
2023/01/26 11:33:08;;;;;;;36.58;4.07;;;7.10;97.30;;;;;;4722057;30;20045;-78
2023/01/26 11:35:51;;;;;;;38.42;4.57;;;7.20;97.40;;;;;;4709601;30;20595;-77
2023/01/26 11:38:39;;;;;;;34.10;4.13;;;7.30;97.30;;;;;;4708190;30;20196;-77
2023/01/26 11:41:35;;;;;;;31.30;3.47;;;7.30;97.00;;;;;;4723623;30;20060;-76
2023/01/26 11:44:27;;;;;;;31.20;4.00;;;7.40;96.80;;;;;;4722021;30;20076;-76
2023/01/26 11:47:21;;;;;;;32.13;3.72;;;7.40;96.60;;;;;;4706853;30;20093;-77
2023/01/26 11:50:08;;;;;;;29.33;3.70;;;7.40;96.50;;;;;;4705651;30;20068;-76
2023/01/26 11:53:23;;;;;;;31.65;3.58;;;7.40;96.40;;;;;;4703807;30;20144;-78
2023/01/26 11:56:10;;;;;;;26.33;3.53;;;7.50;95.90;;;;;;4634515;30;20063;-76
2023/01/26 11:58:43;;;;;;;29.40;3.80;;;7.60;96.30;;;;;;4638471;30;20051;-76
2023/01/26 12:01:43;;;;;;;25.27;3.58;;;7.60;95.90;;;;;;4686114;30;20120;-76
2023/01/26 12:04:21;;;;;;;31.20;3.63;;;7.70;94.80;;;;;;4679494;30;20065;-77
2023/01/26 12:06:57;;;;;;;23.25;3.67;;;7.80;95.20;;;;;;4687868;30;20053;-77
2023/01/26 12:09:51;;;;;;;20.42;2.92;;;7.80;95.40;;;;;;4687944;30;20411;-78
2023/01/26 12:12:42;;;;;;;25.52;2.75;;;7.70;95.50;;;;;;4663399;30;20229;-77
2023/01/26 12:15:10;;;;;;;17.42;2.60;;;7.50;95.00;;;;;;4662461;30;20140;-76
2023/01/26 12:17:56;;;;;;;27.25;2.90;;;7.30;95.90;;;;;;4689136;30;20061;-77
2023/01/26 12:20:44;;;;;;;22.95;2.60;;;7.10;96.30;;;;;;4687425;30;20051;-75
2023/01/26 12:23:42;;;;;;;12.50;2.07;;;7.00;96.60;;;;;;4688726;30;20046;-76
2023/01/26 12:26:14;;;;;;;20.25;2.90;;;7.00;96.80;;;;;;4691523;30;20193;-77
2023/01/26 12:28:46;;;;;;;24.38;2.83;;;7.10;97.00;;;;;;4705809;30;20088;-75
2023/01/26 12:31:16;;;;;;;21.50;2.97;;;7.10;97.00;;;;;;4707792;30;20083;-77
2023/01/26 12:33:42;;;;;;;19.35;2.55;;;7.20;96.90;;;;;;4704383;30;20485;-76
2023/01/26 12:36:33;;;;;;;18.90;2.65;;;7.20;96.70;;;;;;4707182;30;20037;-75
2023/01/26 12:39:12;;;;;;;16.75;2.10;;;7.30;96.40;;;;;;4687083;30;20045;-76
2023/01/26 12:42:03;;;;;;;17.20;2.22;;;7.40;96.40;;;;;;4704169;30;20404;-75
2023/01/26 12:44:39;;;;;;;18.30;2.55;;;7.40;96.10;;;;;;4704209;30;20053;-75
2023/01/26 12:47:32;;;;;;;17.73;3.17;;;7.40;96.00;;;;;;4703761;30;20064;-75
2023/01/26 12:50:04;;;;;;;22.30;3.30;;;7.40;96.20;;;;;;4705441;30;20061;-76
2023/01/26 12:52:48;;;;;;;22.75;3.22;;;7.40;96.10;;;;;;4706808;30;20122;-77
2023/01/26 12:55:46;;;;;;;21.55;2.67;;;7.40;96.20;;;;;;4702268;30;20049;-79
2023/01/26 12:58:20;;;;;;;20.05;2.78;;;7.40;96.30;;;;;;4674325;30;20053;-78
2023/01/26 13:00:56;;;;;;;21.25;2.85;;;7.50;96.10;;;;;;4701757;30;20419;-76
2023/01/26 13:03:29;;;;;;;12.07;2.40;;;7.50;95.60;;;;;;4701223;30;20126;-77
2023/01/26 13:06:24;;;;;;;19.25;2.50;;;7.50;95.50;;;;;;4703008;30;20067;-76
2023/01/26 13:08:58;;;;;;;21.00;2.75;;;7.60;95.50;;;;;;4704543;30;20067;-77
2023/01/26 13:11:48;;;;;;;19.88;2.92;;;7.60;95.70;;;;;;4702141;30;20785;-75
2023/01/26 13:14:43;;;;;;;23.10;2.85;;;7.70;95.30;;;;;;4701301;30;20059;-76
2023/01/26 13:17:15;;;;;;;20.38;3.33;;;7.60;95.30;;;;;;4703854;30;20053;-75
2023/01/26 13:19:40;;;;;;;22.58;3.72;;;7.60;95.70;;;;;;4700718;30;20455;-76
2023/01/26 13:22:22;;;;;;;22.05;3.05;;;7.60;95.80;;;;;;4717769;30;20152;-76
2023/01/26 13:24:48;;;;;;;18.25;2.40;;;7.60;95.70;;;;;;4701254;30;20069;-76
2023/01/26 13:27:39;;;;;;;14.00;2.58;;;7.50;95.90;;;;;;4705860;30;20052;-76
2023/01/26 13:30:22;;;;;;;10.55;2.22;;;7.50;95.30;;;;;;4699250;30;20061;-78
2023/01/26 13:32:48;;;;;;;17.00;2.15;;;7.50;95.00;;;;;;4702017;30;20075;-77
2023/01/26 13:35:18;;;;;;;17.17;2.47;;;7.50;95.30;;;;;;4699323;30;20053;-77
2023/01/26 13:37:55;;;;;;;17.58;2.35;;;7.50;95.20;;;;;;4702415;30;20059;-76
2023/01/26 13:40:31;;;;;;;22.35;3.95;;;7.50;95.20;;;;;;4702719;30;20033;-78
2023/01/26 13:43:02;;;;;;;25.30;3.67;;;7.60;95.30;;;;;;4702371;30;20041;-77
2023/01/26 13:45:55;;;;;;;19.38;2.60;;;7.60;95.30;;;;;;4702896;30;20062;-76